Time,TemperatureF,DewpointF,PressureIn,WindDirection,WindDirectionDegrees,WindSpeedMPH,WindSpeedGustMPH,Humidity,HourlyPrecipIn,Conditions,Clouds,dailyrainin,SoftwareType,DateUTC
2013-04-20 00:05:00,72.1,64.5,30.05,ESE,102,5.0,7.0,77,0.00,,,0.00,Wunderground v.1.15,2013-04-20 10:05:00,
2013-04-20 00:15:00,72.1,64.5,30.05,East,92,4.0,4.0,77,0.00,,,0.00,Wunderground v.1.15,2013-04-20 10:15:00,
2013-04-20 00:25:00,72.0,64.4,30.04,ESE,107,4.0,4.0,77,0.00,,,0.00,Wunderground v.1.15,2013-04-20 10:25:00,
2013-04-20 00:35:00,71.8,64.2,30.04,ESE,103,3.0,5.0,77,0.00,,,0.00,Wunderground v.1.15,2013-04-20 10:35:00,
2013-04-20 00:44:00,71.9,64.3,30.04,ESE,107,3.0,3.0,77,0.00,,,0.00,Wunderground v.1.15,2013-04-20 10:44:00,
2013-04-20 00:50:00,71.8,64.6,30.04,East,101,3.0,6.0,78,0.00,,,0.00,Wunderground v.1.15,2013-04-20 10:50:00,
2013-04-20 01:00:00,71.7,64.1,30.03,ESE,102,3.0,3.0,77,0.00,,,0.00,Wunderground v.1.15,2013-04-20 11:00:00,
2013-04-20 01:05:00,71.7,64.1,30.03,East,88,3.0,3.0,77,0.00,,,0.00,Wunderground v.1.15,2013-04-20 11:05:00,
2013-04-20 01:15:00,71.6,63.6,30.03,ENE,69,2.0,6.0,76,0.00,,,0.00,Wunderground v.1.15,2013-04-20 11:15:00,
2013-04-20 01:25:00,71.4,63.4,30.03,East,88,1.0,2.0,76,0.00,,,0.00,Wunderground v.1.15,2013-04-20 11:25:00,
2013-04-20 01:35:00,71.5,63.5,30.03,ESE,105,1.0,2.0,76,0.00,,,0.00,Wunderground v.1.15,2013-04-20 11:35:00,
2013-04-20 01:45:00,71.5,63.5,30.03,ESE,107,1.0,1.0,76,0.00,,,0.00,Wunderground v.1.15,2013-04-20 11:45:00,
2013-04-20 01:55:00,71.3,63.3,30.03,ESE,107,0.0,0.0,76,0.00,,,0.00,Wunderground v.1.15,2013-04-20 11:55:00,
2013-04-20 02:00:00,71.2,63.6,30.02,ESE,109,0.0,0.0,77,0.00,,,0.00,Wunderground v.1.15,2013-04-20 12:00:00,
2013-04-20 02:05:00,71.0,63.4,30.02,ESE,109,1.0,1.0,77,0.00,,,0.00,Wunderground v.1.15,2013-04-20 12:05:00,
2013-04-20 02:15:00,71.0,63.8,30.02,ESE,110,2.0,4.0,78,0.00,,,0.00,Wunderground v.1.15,2013-04-20 12:15:00,
2013-04-20 02:25:00,71.0,63.4,30.02,ESE,112,2.0,5.0,77,0.00,,,0.00,Wunderground v.1.15,2013-04-20 12:25:00,
2013-04-20 02:35:00,70.8,63.2,30.02,ESE,113,2.0,3.0,77,0.00,,,0.00,Wunderground v.1.15,2013-04-20 12:35:00,
2013-04-20 02:45:00,70.8,63.6,30.01,ESE,105,2.0,4.0,78,0.00,,,0.00,Wunderground v.1.15,2013-04-20 12:45:00,
2013-04-20 02:55:00,70.7,63.5,30.01,ENE,78,1.0,3.0,78,0.00,,,0.00,Wunderground v.1.15,2013-04-20 12:55:00,
2013-04-20 03:05:00,70.4,63.2,30.01,East,89,1.0,1.0,78,0.00,,,0.00,Wunderground v.1.15,2013-04-20 13:05:00,
2013-04-20 03:15:00,70.2,63.0,30.01,East,90,1.0,1.0,78,0.00,,,0.00,Wunderground v.1.15,2013-04-20 13:15:00,
2013-04-20 03:20:00,70.1,62.9,30.00,East,90,0.0,0.0,78,0.00,,,0.00,Wunderground v.1.15,2013-04-20 13:20:00,
2013-04-20 03:30:00,69.8,62.6,30.00,East,91,0.0,0.0,78,0.00,,,0.00,Wunderground v.1.15,2013-04-20 13:30:00,
2013-04-20 03:35:00,69.6,62.4,30.00,East,91,1.0,2.0,78,0.00,,,0.00,Wunderground v.1.15,2013-04-20 13:35:00,
2013-04-20 03:45:00,69.4,62.2,30.00,East,99,2.0,3.0,78,0.00,,,0.00,Wunderground v.1.15,2013-04-20 13:45:00,
2013-04-20 03:55:00,69.8,62.6,30.00,ESE,120,3.0,4.0,78,0.00,,,0.00,Wunderground v.1.15,2013-04-20 13:55:00,
2013-04-20 04:05:00,69.7,62.5,30.00,ESE,120,1.0,3.0,78,0.00,,,0.00,Wunderground v.1.15,2013-04-20 14:05:00,
2013-04-20 04:15:00,69.6,62.4,30.01,ESE,119,1.0,1.0,78,0.00,,,0.00,Wunderground v.1.15,2013-04-20 14:15:00,
2013-04-20 04:25:00,69.6,62.8,30.01,ESE,120,1.0,1.0,79,0.00,,,0.00,Wunderground v.1.15,2013-04-20 14:25:00,
2013-04-20 04:35:00,69.8,62.6,30.01,ESE,120,1.0,2.0,78,0.00,,,0.00,Wunderground v.1.15,2013-04-20 14:35:00,
2013-04-20 04:45:00,69.9,63.1,30.01,ESE,120,1.0,2.0,79,0.00,,,0.00,Wunderground v.1.15,2013-04-20 14:45:00,
2013-04-20 04:55:00,70.0,62.8,30.01,ESE,120,1.0,2.0,78,0.00,,,0.00,Wunderground v.1.15,2013-04-20 14:55:00,
2013-04-20 05:05:00,70.2,63.0,30.02,ESE,119,1.0,1.0,78,0.00,,,0.00,Wunderground v.1.15,2013-04-20 15:05:00,
2013-04-20 05:15:00,70.1,63.3,30.02,ESE,119,0.0,0.0,79,0.00,,,0.00,Wunderground v.1.15,2013-04-20 15:15:00,
2013-04-20 05:25:00,70.2,63.0,30.02,ESE,120,1.0,1.0,78,0.00,,,0.00,Wunderground v.1.15,2013-04-20 15:25:00,
2013-04-20 05:30:00,70.2,63.4,30.02,ESE,120,1.0,1.0,79,0.00,,,0.00,Wunderground v.1.15,2013-04-20 15:30:00,
2013-04-20 05:40:00,70.2,63.4,30.03,ESE,119,0.0,0.0,79,0.00,,,0.00,Wunderground v.1.15,2013-04-20 15:40:00,
2013-04-20 05:45:00,70.1,63.6,30.03,ESE,119,0.0,0.0,80,0.00,,,0.00,Wunderground v.1.15,2013-04-20 15:45:00,
2013-04-20 05:55:00,69.8,63.7,30.03,ESE,119,0.0,0.0,81,0.00,,,0.00,Wunderground v.1.15,2013-04-20 15:55:00,
2013-04-20 06:00:00,69.7,64.0,30.03,ESE,119,0.0,0.0,82,0.00,,,0.00,Wunderground v.1.15,2013-04-20 16:00:00,
2013-04-20 06:05:00,69.6,63.9,30.03,ESE,120,0.0,0.0,82,0.00,,,0.00,Wunderground v.1.15,2013-04-20 16:05:00,
2013-04-20 06:14:00,69.9,63.8,30.03,ESE,120,0.0,0.0,81,0.00,,,0.00,Wunderground v.1.15,2013-04-20 16:14:00,
2013-04-20 06:20:00,69.9,63.8,30.03,ESE,120,0.0,0.0,81,0.00,,,0.00,Wunderground v.1.15,2013-04-20 16:20:00,
2013-04-20 06:30:00,70.1,64.0,30.03,ESE,119,0.0,0.0,81,0.00,,,0.00,Wunderground v.1.15,2013-04-20 16:30:00,
2013-04-20 06:40:00,70.2,64.4,30.03,ESE,120,0.0,0.0,82,0.00,,,0.00,Wunderground v.1.15,2013-04-20 16:40:00,
2013-04-20 06:50:00,70.7,64.9,30.04,ESE,120,0.0,0.0,82,0.00,,,0.00,Wunderground v.1.15,2013-04-20 16:50:00,
2013-04-20 06:55:00,71.2,65.1,30.04,ESE,120,0.0,0.0,81,0.00,,,0.00,Wunderground v.1.15,2013-04-20 16:55:00,
2013-04-20 07:05:00,72.6,65.3,30.04,ESE,120,1.0,1.0,78,0.00,,,0.00,Wunderground v.1.15,2013-04-20 17:05:00,
2013-04-20 07:15:00,73.7,65.7,30.04,ESE,120,1.0,2.0,76,0.00,,,0.00,Wunderground v.1.15,2013-04-20 17:15:00,
2013-04-20 07:25:00,74.8,65.2,30.04,ESE,119,1.0,3.0,72,0.00,,,0.00,Wunderground v.1.15,2013-04-20 17:25:00,
2013-04-20 07:35:00,75.5,65.0,30.04,ESE,111,1.0,3.0,70,0.00,,,0.00,Wunderground v.1.15,2013-04-20 17:35:00,
2013-04-20 07:40:00,75.8,64.9,30.04,ESE,109,1.0,2.0,69,0.00,,,0.00,Wunderground v.1.15,2013-04-20 17:40:00,
2013-04-20 07:50:00,76.7,64.9,30.05,ESE,109,1.0,1.0,67,0.00,,,0.00,Wunderground v.1.15,2013-04-20 17:50:00,
2013-04-20 08:00:00,77.8,65.5,30.05,ESE,109,0.0,0.0,66,0.00,,,0.00,Wunderground v.1.15,2013-04-20 18:00:00,
2013-04-20 08:05:00,78.2,65.9,30.05,East,101,0.0,3.0,66,0.00,,,0.00,Wunderground v.1.15,2013-04-20 18:05:00,
2013-04-20 08:15:00,77.2,65.4,30.05,ENE,57,3.0,3.0,67,0.00,,,0.00,Wunderground v.1.15,2013-04-20 18:15:00,
2013-04-20 08:25:00,78.0,66.2,30.05,NE,56,1.0,3.0,67,0.00,,,0.00,Wunderground v.1.15,2013-04-20 18:25:00,
2013-04-20 08:35:00,78.6,65.4,30.05,NE,56,1.0,1.0,64,0.00,,,0.00,Wunderground v.1.15,2013-04-20 18:35:00,
2013-04-20 08:45:00,79.0,66.7,30.05,NE,56,0.0,1.0,66,0.00,,,0.00,Wunderground v.1.15,2013-04-20 18:45:00,
2013-04-20 08:50:00,79.5,66.7,30.05,NE,56,0.0,1.0,65,0.00,,,0.00,Wunderground v.1.15,2013-04-20 18:50:00,
2013-04-20 09:00:00,79.1,66.3,30.05,NE,52,2.0,5.0,65,0.00,,,0.00,Wunderground v.1.15,2013-04-20 19:00:00,
2013-04-20 09:05:00,78.6,65.8,30.05,NE,46,3.0,5.0,65,0.00,,,0.00,Wunderground v.1.15,2013-04-20 19:05:00,
2013-04-20 09:15:00,78.7,65.5,30.05,NE,42,3.0,3.0,64,0.00,,,0.00,Wunderground v.1.15,2013-04-20 19:15:00,
2013-04-20 09:20:00,78.5,65.3,30.05,NE,36,3.0,4.0,64,0.00,,,0.00,Wunderground v.1.15,2013-04-20 19:20:00,
2013-04-20 09:30:00,78.8,66.0,30.05,NNE,23,1.0,2.0,65,0.00,,,0.00,Wunderground v.1.15,2013-04-20 19:30:00,
2013-04-20 09:40:00,78.9,66.6,30.05,North,5,2.0,2.0,66,0.00,,,0.00,Wunderground v.1.15,2013-04-20 19:40:00,
2013-04-20 09:50:00,78.7,66.8,30.06,NNW,337,1.0,1.0,67,0.00,,,0.00,Wunderground v.1.15,2013-04-20 19:50:00,
2013-04-20 09:55:00,78.8,66.5,30.06,NNW,333,2.0,2.0,66,0.00,,,0.00,Wunderground v.1.15,2013-04-20 19:55:00,
2013-04-20 10:05:00,79.1,66.8,30.06,NW,321,2.0,2.0,66,0.00,,,0.00,Wunderground v.1.15,2013-04-20 20:05:00,
2013-04-20 10:15:00,79.5,67.6,30.05,NW,317,3.0,4.0,67,0.00,,,0.00,Wunderground v.1.15,2013-04-20 20:15:00,
2013-04-20 10:25:00,79.9,67.1,30.05,NNE,17,4.0,4.0,65,0.00,,,0.00,Wunderground v.1.15,2013-04-20 20:25:00,
2013-04-20 10:35:00,80.1,68.6,30.05,NNE,28,3.0,3.0,68,0.00,,,0.00,Wunderground v.1.15,2013-04-20 20:35:00,
2013-04-20 10:45:00,80.7,67.4,30.06,NNE,32,3.0,7.0,64,0.00,,,0.00,Wunderground v.1.15,2013-04-20 20:45:00,
2013-04-20 10:55:00,80.4,68.0,30.06,NE,34,3.0,7.0,66,0.00,,,0.00,Wunderground v.1.15,2013-04-20 20:55:00,
2013-04-20 11:05:00,79.1,66.8,30.05,NNE,21,4.0,4.0,66,0.00,,,0.00,Wunderground v.1.15,2013-04-20 21:05:00,
2013-04-20 11:15:00,79.4,67.0,30.05,NE,36,4.0,7.0,66,0.00,,,0.00,Wunderground v.1.15,2013-04-20 21:15:00,
2013-04-20 11:20:00,79.7,67.3,30.05,NNE,33,4.0,6.0,66,0.00,,,0.00,Wunderground v.1.15,2013-04-20 21:20:00,
2013-04-20 11:30:00,80.1,68.2,30.04,NE,41,4.0,7.0,67,0.00,,,0.00,Wunderground v.1.15,2013-04-20 21:30:00,
2013-04-20 11:35:00,80.1,67.3,30.04,NNE,32,4.0,7.0,65,0.00,,,0.00,Wunderground v.1.15,2013-04-20 21:35:00,
2013-04-20 11:45:00,80.2,68.2,30.04,NNE,29,4.0,8.0,67,0.00,,,0.00,Wunderground v.1.15,2013-04-20 21:45:00,
2013-04-20 11:50:00,79.7,67.3,30.04,NE,40,5.0,5.0,66,0.00,,,0.00,Wunderground v.1.15,2013-04-20 21:50:00,
2013-04-20 12:00:00,80.1,66.8,30.04,NNE,20,3.0,3.0,64,0.00,,,0.00,Wunderground v.1.15,2013-04-20 22:00:00,
2013-04-20 12:05:00,80.3,67.9,30.04,NE,36,4.0,10.0,66,0.00,,,0.00,Wunderground v.1.15,2013-04-20 22:05:00,
2013-04-20 12:15:00,80.4,67.6,30.04,NNE,25,3.0,5.0,65,0.00,,,0.00,Wunderground v.1.15,2013-04-20 22:15:00,
2013-04-20 12:25:00,80.7,66.9,30.03,North,5,3.0,3.0,63,0.00,,,0.00,Wunderground v.1.15,2013-04-20 22:25:00,
2013-04-20 12:30:00,81.0,67.2,30.03,NNE,33,3.0,4.0,63,0.00,,,0.00,Wunderground v.1.15,2013-04-20 22:30:00,
2013-04-20 12:40:00,81.2,67.9,30.03,NNE,26,3.0,3.0,64,0.00,,,0.00,Wunderground v.1.15,2013-04-20 22:40:00,
2013-04-20 12:50:00,81.9,67.1,30.02,NE,53,3.0,3.0,61,0.00,,,0.00,Wunderground v.1.15,2013-04-20 22:50:00,
2013-04-20 12:55:00,81.9,68.1,30.02,NNE,13,3.0,3.0,63,0.00,,,0.00,Wunderground v.1.15,2013-04-20 22:55:00,
2013-04-20 13:05:00,81.4,68.1,30.01,NE,34,4.0,5.0,64,0.00,,,0.00,Wunderground v.1.15,2013-04-20 23:05:00,
2013-04-20 13:15:00,81.0,68.6,30.01,NE,34,4.0,6.0,66,0.00,,,0.00,Wunderground v.1.15,2013-04-20 23:15:00,
2013-04-20 13:25:00,81.4,68.5,30.00,NNE,32,5.0,6.0,65,0.00,,,0.00,Wunderground v.1.15,2013-04-20 23:25:00,
2013-04-20 13:35:00,81.5,68.1,30.01,NE,56,5.0,5.0,64,0.00,,,0.00,Wunderground v.1.15,2013-04-20 23:35:00,
2013-04-20 13:45:00,81.5,68.1,30.00,North,5,5.0,7.0,64,0.00,,,0.00,Wunderground v.1.15,2013-04-20 23:45:00,
2013-04-20 13:55:00,81.3,68.4,29.99,NE,46,5.0,6.0,65,0.00,,,0.00,Wunderground v.1.15,2013-04-20 23:55:00,
2013-04-20 14:05:00,81.1,69.1,29.99,NE,34,6.0,9.0,67,0.00,,,0.00,Wunderground v.1.15,2013-04-21 00:05:00,
2013-04-20 14:15:00,81.2,69.2,29.99,NNE,32,5.0,5.0,67,0.00,,,0.00,Wunderground v.1.15,2013-04-21 00:15:00,
2013-04-20 14:25:00,80.8,69.2,29.99,NE,38,6.0,6.0,68,0.00,,,0.00,Wunderground v.1.15,2013-04-21 00:25:00,
2013-04-20 14:30:00,81.1,69.1,29.99,NE,41,5.0,6.0,67,0.00,,,0.00,Wunderground v.1.15,2013-04-21 00:30:00,
2013-04-20 14:40:00,81.3,68.9,29.99,ENE,73,5.0,7.0,66,0.00,,,0.00,Wunderground v.1.15,2013-04-21 00:40:00,
2013-04-20 14:45:00,81.4,68.1,29.99,NE,55,5.0,7.0,64,0.00,,,0.00,Wunderground v.1.15,2013-04-21 00:45:00,
2013-04-20 14:55:00,81.1,68.2,29.98,NE,47,5.0,5.0,65,0.00,,,0.00,Wunderground v.1.15,2013-04-21 00:55:00,
2013-04-20 15:05:00,82.0,68.2,29.99,NE,46,4.0,5.0,63,0.00,,,0.00,Wunderground v.1.15,2013-04-21 01:05:00,
2013-04-20 15:15:00,82.1,67.8,29.98,NE,40,4.0,4.0,62,0.00,,,0.00,Wunderground v.1.15,2013-04-21 01:15:00,
2013-04-20 15:25:00,82.1,68.3,29.98,ENE,63,4.0,4.0,63,0.00,,,0.00,Wunderground v.1.15,2013-04-21 01:25:00,
2013-04-20 15:35:00,81.7,68.3,29.99,NE,45,4.0,4.0,64,0.00,,,0.00,Wunderground v.1.15,2013-04-21 01:35:00,
2013-04-20 15:45:00,81.6,68.7,29.98,ENE,76,4.0,4.0,65,0.00,,,0.00,Wunderground v.1.15,2013-04-21 01:45:00,
2013-04-20 15:55:00,81.5,69.0,29.98,NE,41,3.0,4.0,66,0.00,,,0.00,Wunderground v.1.15,2013-04-21 01:55:00,
2013-04-20 16:05:00,81.6,69.6,29.98,East,86,3.0,5.0,67,0.00,,,0.00,Wunderground v.1.15,2013-04-21 02:05:00,
2013-04-20 16:15:00,80.7,68.7,29.97,NE,35,4.0,4.0,67,0.00,,,0.00,Wunderground v.1.15,2013-04-21 02:15:00,
2013-04-20 16:25:00,80.7,69.2,29.97,NNE,30,2.0,6.0,68,0.00,,,0.00,Wunderground v.1.15,2013-04-21 02:25:00,
2013-04-20 16:35:00,80.8,68.8,29.98,NE,39,2.0,3.0,67,0.00,,,0.00,Wunderground v.1.15,2013-04-21 02:35:00,
2013-04-20 16:45:00,80.7,69.2,29.98,ENE,67,2.0,3.0,68,0.00,,,0.00,Wunderground v.1.15,2013-04-21 02:45:00,
2013-04-20 16:50:00,80.7,69.6,29.98,ENE,71,2.0,3.0,69,0.00,,,0.00,Wunderground v.1.15,2013-04-21 02:50:00,
2013-04-20 16:55:00,80.4,69.3,29.98,ENE,75,2.0,3.0,69,0.00,,,0.00,Wunderground v.1.15,2013-04-21 02:55:00,
2013-04-20 17:05:00,79.4,68.8,29.98,NNE,18,3.0,3.0,70,0.00,,,0.00,Wunderground v.1.15,2013-04-21 03:05:00,
2013-04-20 17:15:00,79.1,68.9,29.98,NE,36,3.0,3.0,71,0.00,,,0.00,Wunderground v.1.15,2013-04-21 03:15:00,
2013-04-20 17:20:00,78.7,68.9,29.98,NE,37,3.0,4.0,72,0.00,,,0.00,Wunderground v.1.15,2013-04-21 03:20:00,
2013-04-20 17:25:00,78.5,68.7,29.99,NE,37,2.0,4.0,72,0.00,,,0.00,Wunderground v.1.15,2013-04-21 03:25:00,
2013-04-20 17:35:00,78.5,68.7,29.99,NNW,348,1.0,3.0,72,0.00,,,0.00,Wunderground v.1.15,2013-04-21 03:35:00,
2013-04-20 17:45:00,78.3,68.1,29.99,North,360,1.0,1.0,71,0.00,,,0.00,Wunderground v.1.15,2013-04-21 03:45:00,
2013-04-20 17:50:00,78.3,68.5,29.99,East,87,1.0,1.0,72,0.00,,,0.00,Wunderground v.1.15,2013-04-21 03:50:00,
2013-04-20 17:55:00,78.4,68.2,29.99,East,80,1.0,1.0,71,0.00,,,0.00,Wunderground v.1.15,2013-04-21 03:55:00,
2013-04-20 18:05:00,78.6,68.4,29.99,ENE,75,1.0,4.0,71,0.00,,,0.00,Wunderground v.1.15,2013-04-21 04:05:00,
2013-04-20 18:10:00,78.3,68.1,29.99,ENE,75,1.0,1.0,71,0.00,,,0.00,Wunderground v.1.15,2013-04-21 04:10:00,
2013-04-20 18:20:00,78.0,67.8,30.00,ENE,75,0.0,0.0,71,0.00,,,0.00,Wunderground v.1.15,2013-04-21 04:20:00,
2013-04-20 18:30:00,78.0,67.4,30.00,ENE,75,0.0,1.0,70,0.00,,,0.00,Wunderground v.1.15,2013-04-21 04:30:00,
2013-04-20 18:40:00,77.9,66.9,29.99,SW,235,1.0,1.0,69,0.00,,,0.00,Wunderground v.1.15,2013-04-21 04:40:00,
2013-04-20 18:50:00,77.6,66.6,30.00,West,265,1.0,1.0,69,0.00,,,0.00,Wunderground v.1.15,2013-04-21 04:50:00,
2013-04-20 19:00:00,77.3,66.7,30.00,SW,234,1.0,1.0,70,0.00,,,0.00,Wunderground v.1.15,2013-04-21 05:00:00,
2013-04-20 19:05:00,77.2,66.2,30.00,SW,233,0.0,2.0,69,0.00,,,0.00,Wunderground v.1.15,2013-04-21 05:05:00,
2013-04-20 19:15:00,76.9,66.4,30.01,SW,217,1.0,2.0,70,0.00,,,0.00,Wunderground v.1.15,2013-04-21 05:15:00,
2013-04-20 19:25:00,76.7,66.2,30.00,SW,217,0.0,0.0,70,0.00,,,0.00,Wunderground v.1.15,2013-04-21 05:25:00,
2013-04-20 19:35:00,76.4,66.3,30.01,SW,217,0.0,0.0,71,0.00,,,0.00,Wunderground v.1.15,2013-04-21 05:35:00,
2013-04-20 19:45:00,75.9,65.8,30.02,SW,217,0.0,0.0,71,0.00,,,0.00,Wunderground v.1.15,2013-04-21 05:45:00,
2013-04-20 19:55:00,75.3,65.6,30.02,SW,217,0.0,0.0,72,0.00,,,0.00,Wunderground v.1.15,2013-04-21 05:55:00,
2013-04-20 20:05:00,74.7,65.5,30.02,SW,217,0.0,0.0,73,0.00,,,0.00,Wunderground v.1.15,2013-04-21 06:05:00,
2013-04-20 20:15:00,74.2,65.4,30.02,SW,217,0.0,0.0,74,0.00,,,0.00,Wunderground v.1.15,2013-04-21 06:15:00,
2013-04-20 20:25:00,73.8,65.4,30.02,SW,217,0.0,0.0,75,0.00,,,0.00,Wunderground v.1.15,2013-04-21 06:25:00,
2013-04-20 20:35:00,73.5,65.5,30.02,SW,215,0.0,1.0,76,0.00,,,0.00,Wunderground v.1.15,2013-04-21 06:35:00,
2013-04-20 20:40:00,73.3,65.3,30.02,SW,215,0.0,0.0,76,0.00,,,0.00,Wunderground v.1.15,2013-04-21 06:40:00,
2013-04-20 20:50:00,73.2,65.2,30.03,SW,215,0.0,0.0,76,0.00,,,0.00,Wunderground v.1.15,2013-04-21 06:50:00,
2013-04-20 21:00:00,73.1,65.1,30.03,SW,216,0.0,1.0,76,0.00,,,0.00,Wunderground v.1.15,2013-04-21 07:00:00,
2013-04-20 21:05:00,73.0,65.0,30.03,SW,216,0.0,1.0,76,0.00,,,0.00,Wunderground v.1.15,2013-04-21 07:05:00,
2013-04-20 21:15:00,73.0,65.4,30.03,SW,216,0.0,0.0,77,0.00,,,0.00,Wunderground v.1.15,2013-04-21 07:15:00,
2013-04-20 21:25:00,73.0,65.4,30.04,SW,215,0.0,0.0,77,0.00,,,0.00,Wunderground v.1.15,2013-04-21 07:25:00,
2013-04-20 21:35:00,72.8,65.2,30.04,SW,216,0.0,0.0,77,0.00,,,0.00,Wunderground v.1.15,2013-04-21 07:35:00,
2013-04-20 21:45:00,72.6,65.0,30.04,SW,215,0.0,0.0,77,0.00,,,0.00,Wunderground v.1.15,2013-04-21 07:45:00,
2013-04-20 21:50:00,72.6,65.0,30.04,SW,216,0.0,0.0,77,0.00,,,0.00,Wunderground v.1.15,2013-04-21 07:50:00,
2013-04-20 22:00:00,72.4,64.8,30.05,SW,216,0.0,0.0,77,0.00,,,0.00,Wunderground v.1.15,2013-04-21 08:00:00,
2013-04-20 22:05:00,72.3,65.1,30.04,SW,215,0.0,0.0,78,0.00,,,0.00,Wunderground v.1.15,2013-04-21 08:05:00,
2013-04-20 22:15:00,72.1,64.9,30.04,SW,216,0.0,0.0,78,0.00,,,0.00,Wunderground v.1.15,2013-04-21 08:15:00,
2013-04-20 22:25:00,71.9,64.7,30.04,SW,216,0.0,0.0,78,0.00,,,0.00,Wunderground v.1.15,2013-04-21 08:25:00,
2013-04-20 22:30:00,71.9,64.7,30.04,SW,215,0.0,0.0,78,0.00,,,0.00,Wunderground v.1.15,2013-04-21 08:30:00,
2013-04-20 22:40:00,71.8,64.6,30.05,SW,215,0.0,0.0,78,0.00,,,0.00,Wunderground v.1.15,2013-04-21 08:40:00,
2013-04-20 22:50:00,71.5,64.6,30.05,SW,215,0.0,0.0,79,0.00,,,0.00,Wunderground v.1.15,2013-04-21 08:50:00,
2013-04-20 23:00:00,71.3,64.4,30.04,SW,216,0.0,0.0,79,0.00,,,0.00,Wunderground v.1.15,2013-04-21 09:00:00,
2013-04-20 23:05:00,71.2,64.4,30.04,SW,216,0.0,0.0,79,0.00,,,0.00,Wunderground v.1.15,2013-04-21 09:05:00,
2013-04-20 23:15:00,71.0,64.5,30.03,SW,216,0.0,0.0,80,0.00,,,0.00,Wunderground v.1.15,2013-04-21 09:15:00,
2013-04-20 23:25:00,70.7,64.6,30.04,SW,215,0.0,0.0,81,0.00,,,0.00,Wunderground v.1.15,2013-04-21 09:25:00,
2013-04-20 23:35:00,70.4,64.3,30.03,SW,215,0.0,0.0,81,0.00,,,0.00,Wunderground v.1.15,2013-04-21 09:35:00,
2013-04-20 23:45:00,70.1,64.3,30.03,SW,216,0.0,0.0,82,0.00,,,0.00,Wunderground v.1.15,2013-04-21 09:45:00,
2013-04-20 23:55:00,70.1,64.3,30.03,SW,216,0.0,0.0,82,0.00,,,0.00,Wunderground v.1.15,2013-04-21 09:55:00,